createdAt,value
2022-11-24T00:01:31.574Z,30.80
2022-11-24T00:04:05.963Z,30.10
2022-11-24T00:06:36.109Z,29.50
2022-11-24T00:09:05.722Z,31.40
2022-11-24T00:11:36.730Z,30.10
2022-11-24T00:14:06.978Z,29.60
2022-11-24T00:16:40.404Z,29.80
2022-11-24T00:19:11.431Z,30.40
2022-11-24T00:21:42.142Z,30.60
2022-11-24T00:24:10.878Z,30.00
2022-11-24T00:26:39.880Z,29.90
2022-11-24T00:29:10.025Z,30.10
2022-11-24T00:31:41.813Z,29.00
2022-11-24T00:34:14.050Z,29.50
2022-11-24T00:36:43.275Z,31.10
2022-11-24T00:39:14.540Z,30.40
2022-11-24T00:41:43.451Z,30.60
2022-11-24T00:44:11.969Z,29.70
2022-11-24T00:46:40.564Z,31.90
2022-11-24T00:49:09.627Z,30.60
2022-11-24T00:51:39.765Z,31.10
2022-11-24T00:54:08.461Z,31.40
2022-11-24T00:56:36.770Z,32.60
2022-11-24T00:59:05.035Z,31.70
2022-11-24T01:01:33.735Z,30.90
2022-11-24T01:04:02.693Z,32.20
2022-11-24T01:06:32.857Z,30.90
2022-11-24T01:09:01.634Z,32.60
2022-11-24T01:12:06.656Z,30.50
2022-11-24T01:14:35.266Z,30.00
2022-11-24T01:17:04.451Z,30.50
2022-11-24T01:19:33.018Z,30.00
2022-11-24T01:22:01.287Z,28.20
2022-11-24T01:24:29.612Z,28.30
2022-11-24T01:26:57.874Z,29.30
2022-11-24T01:29:26.351Z,28.80
2022-11-24T01:31:54.635Z,28.80
2022-11-24T01:34:23.268Z,28.20
2022-11-24T01:36:51.567Z,27.10
2022-11-24T01:39:20.043Z,27.60
2022-11-24T01:41:48.366Z,26.60
2022-11-24T01:44:31.499Z,27.10
2022-11-24T01:47:06.415Z,25.00
2022-11-24T01:49:38.497Z,26.00
2022-11-24T01:52:09.491Z,25.50
2022-11-24T01:54:47.529Z,26.50
2022-11-24T01:57:33.067Z,26.00
2022-11-24T02:00:14.576Z,25.60
2022-11-24T02:03:03.552Z,24.80
2022-11-24T02:06:02.431Z,24.40
2022-11-24T02:08:58.708Z,24.70
2022-11-24T02:11:31.047Z,23.80
2022-11-24T02:13:59.909Z,23.80
2022-11-24T02:16:29.622Z,23.30
2022-11-24T02:18:58.107Z,22.50
2022-11-24T02:21:26.427Z,23.30
2022-11-24T02:24:10.186Z,23.00
2022-11-24T02:26:48.333Z,22.40
2022-11-24T02:29:16.942Z,22.30
2022-11-24T02:31:50.075Z,23.40
2022-11-24T02:34:18.260Z,23.90
2022-11-24T02:36:46.541Z,23.70
2022-11-24T02:39:15.627Z,22.80
2022-11-24T02:41:49.380Z,21.70
2022-11-24T02:44:21.003Z,21.50
2022-11-24T02:46:49.546Z,21.10
2022-11-24T02:49:18.118Z,20.60
2022-11-24T02:51:46.390Z,20.20
2022-11-24T02:54:14.766Z,20.00
2022-11-24T02:56:43.061Z,20.60
2022-11-24T02:59:11.565Z,20.90
2022-11-24T03:01:40.014Z,19.70
2022-11-24T03:04:08.354Z,20.00
2022-11-24T03:06:36.768Z,20.80
2022-11-24T03:09:06.579Z,20.00
2022-11-24T03:11:34.958Z,20.50
2022-11-24T03:14:03.777Z,21.20
2022-11-24T03:16:33.319Z,21.60
2022-11-24T03:19:02.950Z,19.90
2022-11-24T03:21:31.460Z,21.00
2022-11-24T03:23:59.787Z,21.10
2022-11-24T03:26:28.574Z,21.00
2022-11-24T03:28:57.568Z,20.30
2022-11-24T03:31:26.102Z,21.00
2022-11-24T03:33:54.492Z,21.10
2022-11-24T03:36:22.763Z,21.40
2022-11-24T03:38:51.201Z,20.60
2022-11-24T03:41:19.443Z,20.70
2022-11-24T03:43:48.199Z,20.70
2022-11-24T03:46:16.499Z,21.20
2022-11-24T03:48:45.138Z,21.70
2022-11-24T03:51:13.394Z,22.00
2022-11-24T03:53:41.983Z,20.70
2022-11-24T03:56:10.233Z,21.20
2022-11-24T03:58:38.673Z,20.90
2022-11-24T04:01:07.138Z,21.80
2022-11-24T04:03:35.544Z,21.50
2022-11-24T04:06:03.799Z,22.00
2022-11-24T04:08:32.128Z,22.00
2022-11-24T04:11:01.265Z,23.70
2022-11-24T04:13:29.584Z,22.80
2022-11-24T04:15:57.961Z,22.70
2022-11-24T04:18:26.224Z,22.20
2022-11-24T04:20:54.584Z,22.20
2022-11-24T04:23:23.155Z,22.50
2022-11-24T04:25:51.453Z,21.80
2022-11-24T04:28:19.709Z,21.10
2022-11-24T04:30:48.306Z,21.90
2022-11-24T04:33:16.571Z,22.20
2022-11-24T04:35:44.946Z,21.90
2022-11-24T04:38:13.448Z,21.80
2022-11-24T04:41:04.079Z,22.70
2022-11-24T04:43:37.705Z,21.80
2022-11-24T04:46:12.002Z,21.60
2022-11-24T04:48:40.558Z,21.80
2022-11-24T04:51:09.073Z,21.20
2022-11-24T04:53:37.503Z,21.40
2022-11-24T04:56:06.691Z,21.60
2022-11-24T04:58:35.264Z,20.30
2022-11-24T05:01:08.729Z,19.80
2022-11-24T05:03:37.296Z,20.60
2022-11-24T05:06:06.175Z,20.20
2022-11-24T05:08:35.234Z,20.60
2022-11-24T05:11:05.886Z,20.00
2022-11-24T05:13:34.283Z,19.90
2022-11-24T05:16:02.659Z,19.80
2022-11-24T05:18:31.184Z,18.50
2022-11-24T05:21:00.091Z,19.00
2022-11-24T05:23:28.373Z,18.00
2022-11-24T05:26:03.795Z,18.60
2022-11-24T05:28:32.481Z,18.90
2022-11-24T05:31:02.306Z,18.30
2022-11-24T05:33:33.677Z,18.50
2022-11-24T05:36:06.774Z,17.30
2022-11-24T05:38:35.826Z,17.80
2022-11-24T05:41:06.396Z,17.70
2022-11-24T05:43:35.152Z,17.90
2022-11-24T05:46:03.559Z,18.60
2022-11-24T05:48:34.901Z,18.10
2022-11-24T05:51:09.014Z,18.30
2022-11-24T05:53:37.568Z,18.00
2022-11-24T05:56:06.354Z,18.40
2022-11-24T05:58:34.565Z,18.40
2022-11-24T06:01:06.925Z,19.30
2022-11-24T06:03:35.146Z,18.60
2022-11-24T06:06:03.455Z,19.00
2022-11-24T06:08:31.715Z,18.70
2022-11-24T06:11:20.333Z,18.60
2022-11-24T06:13:48.884Z,15.80
2022-11-24T06:16:17.405Z,17.50
2022-11-24T06:18:45.435Z,19.20
2022-11-24T06:21:14.003Z,19.00
2022-11-24T06:23:42.396Z,19.60
2022-11-24T06:26:10.639Z,20.00
2022-11-24T06:28:38.855Z,19.40
2022-11-24T06:31:07.196Z,20.10
2022-11-24T06:33:37.337Z,20.30
2022-11-24T06:36:08.814Z,20.60
2022-11-24T06:38:37.312Z,19.30
2022-11-24T06:41:07.926Z,20.00
2022-11-24T06:43:36.790Z,21.40
2022-11-24T06:46:05.769Z,21.10
2022-11-24T06:48:34.032Z,21.30
2022-11-24T06:51:04.868Z,21.90
2022-11-24T06:53:38.132Z,22.00
2022-11-24T06:56:15.159Z,21.40
2022-11-24T06:58:46.788Z,23.40
2022-11-24T07:01:27.815Z,23.30
2022-11-24T07:03:57.136Z,27.10
2022-11-24T07:06:29.092Z,26.80
2022-11-24T07:08:57.298Z,27.40
2022-11-24T07:11:25.358Z,28.00
2022-11-24T07:13:58.357Z,28.80
2022-11-24T07:16:28.951Z,27.80
2022-11-24T07:18:57.771Z,27.70
2022-11-24T07:21:26.758Z,26.10
2022-11-24T07:23:56.626Z,26.90
2022-11-24T07:26:25.980Z,27.30
2022-11-24T07:28:54.601Z,25.60
2022-11-24T07:31:26.599Z,26.80
2022-11-24T07:33:55.490Z,27.80
2022-11-24T07:36:24.576Z,25.30
2022-11-24T07:38:52.716Z,25.20
2022-11-24T07:41:21.200Z,25.60
2022-11-24T07:43:49.639Z,25.60
2022-11-24T07:46:19.377Z,26.00
2022-11-24T07:48:48.368Z,25.70
2022-11-24T07:51:16.897Z,24.10
2022-11-24T07:53:46.508Z,24.90
2022-11-24T07:56:15.200Z,24.30
2022-11-24T07:58:45.963Z,23.90
2022-11-24T08:01:18.628Z,23.90
2022-11-24T08:03:47.331Z,24.30
2022-11-24T08:06:25.008Z,23.60
2022-11-24T08:08:53.918Z,22.30
2022-11-24T08:11:22.384Z,22.70
2022-11-24T08:13:50.659Z,23.30
2022-11-24T08:16:20.905Z,23.50
2022-11-24T08:18:51.537Z,24.40
2022-11-24T08:21:20.347Z,25.20
2022-11-24T08:23:48.531Z,25.00
2022-11-24T08:26:18.454Z,24.70
2022-11-24T08:28:47.790Z,23.70
2022-11-24T08:31:19.396Z,22.10
2022-11-24T08:33:48.080Z,23.10
2022-11-24T08:36:19.405Z,22.30
2022-11-24T08:38:50.259Z,23.10
2022-11-24T08:41:18.491Z,24.10
2022-11-24T08:43:46.806Z,24.90
2022-11-24T08:46:17.498Z,25.50
2022-11-24T08:48:51.238Z,25.50
2022-11-24T08:51:23.651Z,22.70
2022-11-24T08:53:59.817Z,21.80
2022-11-24T08:56:30.498Z,21.90
2022-11-24T08:58:59.427Z,21.30
2022-11-24T09:01:28.581Z,22.30
2022-11-24T09:03:56.893Z,22.90
2022-11-24T09:06:27.942Z,21.80
2022-11-24T09:08:57.169Z,23.20
2022-11-24T09:11:27.542Z,24.00
2022-11-24T09:13:55.846Z,23.00
2022-11-24T09:16:27.159Z,22.70
2022-11-24T09:19:01.928Z,22.50
2022-11-24T09:21:32.507Z,23.40
2022-11-24T09:24:00.696Z,23.50
2022-11-24T09:26:33.100Z,23.70
2022-11-24T09:29:03.483Z,23.80
2022-11-24T09:31:34.642Z,23.90
2022-11-24T09:34:05.894Z,23.50
2022-11-24T09:36:34.710Z,23.80
2022-11-24T09:39:03.862Z,23.20
2022-11-24T09:41:50.656Z,24.40
2022-11-24T09:44:24.424Z,26.40
2022-11-24T09:47:14.656Z,25.60
2022-11-24T09:49:51.854Z,25.20
2022-11-24T09:52:39.720Z,23.70
2022-11-24T09:55:24.251Z,23.10
2022-11-24T09:58:02.750Z,22.90
2022-11-24T10:00:31.637Z,24.00
2022-11-24T10:02:59.897Z,24.10
2022-11-24T10:05:34.029Z,23.90
2022-11-24T10:08:13.176Z,21.80
2022-11-24T10:10:55.239Z,21.80
2022-11-24T10:14:05.183Z,22.90
2022-11-24T10:16:42.556Z,21.70
2022-11-24T10:19:40.259Z,23.00
2022-11-24T10:22:34.856Z,26.80
2022-11-24T10:25:19.090Z,24.60
2022-11-24T10:27:54.019Z,24.70
2022-11-24T10:30:29.326Z,24.80
2022-11-24T10:33:05.298Z,25.10
2022-11-24T10:36:04.539Z,24.40
2022-11-24T10:38:41.446Z,25.10
2022-11-24T10:41:30.041Z,23.90
2022-11-24T10:43:58.476Z,25.00
2022-11-24T10:46:31.407Z,24.60
2022-11-24T10:49:05.453Z,24.80
2022-11-24T10:52:01.649Z,24.80
2022-11-24T10:54:30.017Z,24.80
2022-11-24T10:56:58.253Z,24.70
2022-11-24T10:59:33.061Z,25.10
2022-11-24T11:02:02.257Z,24.70
2022-11-24T11:04:35.793Z,24.10
2022-11-24T11:07:20.471Z,23.00
2022-11-24T11:09:49.697Z,22.80
2022-11-24T11:15:29.142Z,21.70
2022-11-24T11:18:01.521Z,22.40
2022-11-24T11:20:33.058Z,22.20
2022-11-24T11:23:14.546Z,22.80
2022-11-24T11:25:44.006Z,22.60
2022-11-24T11:28:18.505Z,23.40
2022-11-24T11:31:21.800Z,23.40
2022-11-24T11:34:25.235Z,23.20
2022-11-24T11:37:00.157Z,22.90
2022-11-24T11:39:48.894Z,22.80
2022-11-24T11:43:00.920Z,23.50
2022-11-24T11:45:26.761Z,20.80
2022-11-24T11:48:01.207Z,21.10
2022-11-24T11:50:32.412Z,19.30
2022-11-24T11:53:18.831Z,19.50
2022-11-24T11:55:50.264Z,19.10
2022-11-24T11:58:38.202Z,18.80
2022-11-24T12:01:17.028Z,19.20
2022-11-24T12:03:58.110Z,19.20
2022-11-24T12:07:04.112Z,18.90
2022-11-24T12:09:41.803Z,20.10
2022-11-24T12:12:50.142Z,19.10
2022-11-24T12:15:38.752Z,19.00
2022-11-24T12:18:57.015Z,18.90
2022-11-24T12:21:57.999Z,20.40
2022-11-24T12:24:40.723Z,19.50
2022-11-24T12:27:29.980Z,20.50
2022-11-24T12:30:12.217Z,19.00
2022-11-24T12:33:09.926Z,19.90
2022-11-24T12:35:49.125Z,19.60
2022-11-24T12:38:41.431Z,19.60
2022-11-24T12:44:42.821Z,22.30
2022-11-24T12:47:49.522Z,20.30
2022-11-24T12:50:31.202Z,20.70
2022-11-24T12:53:14.375Z,19.20
2022-11-24T12:55:44.415Z,20.80
2022-11-24T12:58:44.346Z,20.40
2022-11-24T13:01:25.685Z,19.50
2022-11-24T13:04:17.086Z,19.70
2022-11-24T13:07:01.730Z,18.90
2022-11-24T13:09:30.109Z,19.20
2022-11-24T13:12:13.688Z,19.20
2022-11-24T13:14:48.396Z,18.40
2022-11-24T13:17:50.202Z,18.60
2022-11-24T13:20:39.157Z,18.20
2022-11-24T13:23:23.816Z,18.80
2022-11-24T13:26:15.335Z,18.60
2022-11-24T13:29:18.383Z,19.00
2022-11-24T13:32:14.716Z,19.50
2022-11-24T13:34:43.028Z,20.10
2022-11-24T13:37:33.615Z,20.70
2022-11-24T13:40:18.026Z,20.80
2022-11-24T13:42:55.506Z,21.60
2022-11-24T13:45:40.161Z,23.70
2022-11-24T13:48:22.626Z,24.10
2022-11-24T13:50:51.837Z,24.90
2022-11-24T13:53:45.782Z,25.00
2022-11-24T13:56:14.207Z,25.90
2022-11-24T13:58:58.095Z,26.50
2022-11-24T14:01:31.501Z,34.90
2022-11-24T14:04:32.076Z,42.50
2022-11-24T14:07:08.227Z,60.90
2022-11-24T14:09:51.216Z,53.70
2022-11-24T14:12:31.846Z,42.30
2022-11-24T14:15:29.583Z,34.20
2022-11-24T14:17:58.055Z,34.80
2022-11-24T14:20:29.305Z,35.20
2022-11-24T14:22:57.699Z,35.60
2022-11-24T14:25:33.414Z,36.30
2022-11-24T14:28:01.948Z,36.60
2022-11-24T14:30:30.393Z,36.00
2022-11-24T14:33:01.266Z,35.00
2022-11-24T14:35:32.746Z,34.40
2022-11-24T14:38:07.047Z,34.10
2022-11-24T14:40:38.557Z,36.40
2022-11-24T14:43:15.672Z,37.00
2022-11-24T14:45:54.283Z,37.70
2022-11-24T14:48:47.297Z,38.00
2022-11-24T14:51:25.163Z,38.80
2022-11-24T14:53:59.215Z,40.70
2022-11-24T14:56:34.618Z,41.80
2022-11-24T14:59:04.125Z,44.20
2022-11-24T15:01:34.765Z,45.20
2022-11-24T15:05:00.976Z,48.00
2022-11-24T15:07:26.313Z,50.70
2022-11-24T15:10:00.917Z,49.80
2022-11-24T15:12:35.679Z,43.40
2022-11-24T15:15:06.575Z,43.70
2022-11-24T15:17:34.747Z,43.00
2022-11-24T15:20:17.850Z,45.70
2022-11-24T15:22:46.179Z,47.80
2022-11-24T15:25:34.271Z,45.30
2022-11-24T15:28:02.722Z,42.00
2022-11-24T15:30:34.268Z,39.40
2022-11-24T15:33:03.546Z,38.50
2022-11-24T15:35:32.844Z,37.70
2022-11-24T15:38:01.002Z,36.20
2022-11-24T15:40:29.211Z,36.00
2022-11-24T15:43:01.956Z,34.40
2022-11-24T15:45:34.365Z,34.30
2022-11-24T15:48:02.776Z,35.00
2022-11-24T15:50:31.076Z,34.50
2022-11-24T15:52:59.300Z,33.50
2022-11-24T15:55:27.523Z,33.90
2022-11-24T15:57:55.781Z,33.50
2022-11-24T16:00:24.386Z,34.50
2022-11-24T16:02:52.376Z,33.60
2022-11-24T16:05:20.896Z,33.90
2022-11-24T16:07:49.401Z,33.90
2022-11-24T16:10:37.536Z,33.60
2022-11-24T16:13:05.571Z,32.80
2022-11-24T16:15:33.886Z,33.00
2022-11-24T16:18:04.146Z,33.60
2022-11-24T16:20:36.455Z,33.40
2022-11-24T16:23:05.177Z,33.80
2022-11-24T16:25:33.446Z,33.10
2022-11-24T16:28:01.669Z,33.70
2022-11-24T16:30:30.079Z,33.30
2022-11-24T16:32:58.292Z,32.70
2022-11-24T16:35:26.497Z,31.80
2022-11-24T16:37:54.701Z,32.80
2022-11-24T16:40:22.976Z,32.60
2022-11-24T16:42:51.257Z,34.60
2022-11-24T16:45:19.533Z,35.00
2022-11-24T16:47:47.577Z,35.40
2022-11-24T16:50:15.960Z,38.30
2022-11-24T16:52:44.196Z,39.50
2022-11-24T16:55:14.963Z,39.70
2022-11-24T16:57:43.650Z,39.20
2022-11-24T17:00:13.686Z,40.60
2022-11-24T17:02:42.068Z,40.00
2022-11-24T17:05:10.741Z,40.50
2022-11-24T17:07:38.966Z,40.80
2022-11-24T17:10:07.986Z,43.20
2022-11-24T17:12:38.416Z,44.90
2022-11-24T17:15:31.837Z,47.10
2022-11-24T17:18:23.123Z,47.60
2022-11-24T17:20:43.796Z,48.70
2022-11-24T17:23:12.047Z,50.10
2022-11-24T17:25:40.340Z,50.80
2022-11-24T17:28:08.574Z,49.90
2022-11-24T17:30:38.157Z,51.20
2022-11-24T17:33:06.857Z,51.10
2022-11-24T17:35:35.318Z,51.20
2022-11-24T17:38:04.517Z,55.80
2022-11-24T17:40:32.753Z,57.30
2022-11-24T17:43:01.872Z,53.80
2022-11-24T17:45:31.057Z,54.30
2022-11-24T17:48:01.686Z,54.60
2022-11-24T17:50:30.071Z,55.10
2022-11-24T17:52:58.346Z,55.90
2022-11-24T17:55:26.601Z,52.70
2022-11-24T17:57:56.063Z,53.00
2022-11-24T18:00:24.520Z,53.40
2022-11-24T18:02:52.823Z,54.00
2022-11-24T18:05:21.618Z,53.50
2022-11-24T18:07:49.945Z,51.20
2022-11-24T18:10:18.422Z,50.30
2022-11-24T18:12:46.941Z,49.20
2022-11-24T18:15:15.361Z,49.20
2022-11-24T18:17:43.571Z,48.30
2022-11-24T18:20:12.322Z,48.90
2022-11-24T18:23:04.505Z,50.60
2022-11-24T18:25:29.843Z,48.60
2022-11-24T18:27:58.296Z,47.60
2022-11-24T18:30:26.598Z,46.20
2022-11-24T18:32:55.397Z,47.30
2022-11-24T18:35:23.757Z,46.10
2022-11-24T18:37:52.057Z,47.80
2022-11-24T18:40:20.360Z,47.70
2022-11-24T18:42:48.558Z,48.70
2022-11-24T18:45:16.799Z,48.50
2022-11-24T18:47:45.153Z,47.10
2022-11-24T18:50:13.616Z,49.20
2022-11-24T18:52:41.870Z,47.20
2022-11-24T18:55:10.398Z,48.10
2022-11-24T18:57:38.676Z,47.70
2022-11-24T19:00:11.942Z,46.80
2022-11-24T19:02:40.812Z,46.80
2022-11-24T19:05:09.296Z,45.30
2022-11-24T19:07:37.566Z,44.70
2022-11-24T19:10:06.281Z,45.00
2022-11-24T19:12:34.470Z,43.10
2022-11-24T19:15:02.737Z,42.90
2022-11-24T19:17:32.363Z,45.70
2022-11-24T19:20:00.696Z,45.20
2022-11-24T19:22:29.336Z,45.60
2022-11-24T19:24:59.478Z,46.50
2022-11-24T19:27:27.716Z,48.30
2022-11-24T19:29:56.096Z,50.00
2022-11-24T19:32:24.356Z,48.20
2022-11-24T19:34:52.656Z,50.00
2022-11-24T19:37:21.778Z,50.40
2022-11-24T19:39:51.396Z,50.20
2022-11-24T19:42:19.646Z,50.00
2022-11-24T19:44:52.961Z,49.70
2022-11-24T19:47:24.367Z,48.80
2022-11-24T19:49:52.633Z,48.60
2022-11-24T19:52:20.817Z,49.00
2022-11-24T19:54:49.196Z,51.30
2022-11-24T19:57:17.399Z,49.20
2022-11-24T19:59:46.098Z,48.20
2022-11-24T20:02:14.361Z,48.70
2022-11-24T20:04:43.277Z,50.30
2022-11-24T20:07:11.558Z,49.80
2022-11-24T20:09:39.922Z,47.70
2022-11-24T20:12:10.065Z,49.50
2022-11-24T20:14:38.116Z,51.20
2022-11-24T20:17:06.897Z,49.30
2022-11-24T20:19:35.090Z,49.90
2022-11-24T20:22:03.369Z,50.70
2022-11-24T20:24:31.462Z,50.20
2022-11-24T20:27:00.332Z,51.70
2022-11-24T20:29:29.327Z,51.20
2022-11-24T20:31:57.928Z,50.50
2022-11-24T20:34:27.297Z,52.40
2022-11-24T20:36:55.639Z,51.00
2022-11-24T20:39:28.099Z,51.60
2022-11-24T20:41:56.931Z,50.90
2022-11-24T20:44:26.911Z,53.30
2022-11-24T20:46:57.315Z,52.20
2022-11-24T20:49:26.714Z,51.50
2022-11-24T20:51:57.126Z,51.40
2022-11-24T20:54:25.599Z,50.40
2022-11-24T20:56:54.526Z,51.10
2022-11-24T20:59:25.192Z,50.70
2022-11-24T21:01:55.907Z,50.70
2022-11-24T21:04:27.637Z,50.40
2022-11-24T21:06:56.415Z,51.00
2022-11-24T21:09:25.451Z,52.40
2022-11-24T21:11:54.860Z,54.30
2022-11-24T21:14:24.646Z,57.70
2022-11-24T21:16:52.922Z,56.50
2022-11-24T21:19:21.501Z,50.80
2022-11-24T21:21:50.378Z,53.50
2022-11-24T21:24:22.214Z,48.40
2022-11-24T21:26:53.063Z,46.80
2022-11-24T21:29:23.876Z,48.60
2022-11-24T21:31:52.575Z,45.10
2022-11-24T21:34:21.154Z,43.30
2022-11-24T21:36:49.699Z,43.10
2022-11-24T21:39:18.826Z,42.90
2022-11-24T21:41:48.243Z,41.90
2022-11-24T21:44:17.110Z,43.80
2022-11-24T21:46:52.462Z,41.90
2022-11-24T21:49:22.571Z,52.90
2022-11-24T21:51:55.852Z,51.70
2022-11-24T21:54:24.981Z,56.00
2022-11-24T21:56:53.667Z,48.80
2022-11-24T21:59:22.626Z,48.90
2022-11-24T22:01:50.987Z,48.10
2022-11-24T22:04:19.228Z,46.10
2022-11-24T22:06:47.504Z,42.70
2022-11-24T22:09:18.306Z,44.80
2022-11-24T22:11:52.256Z,43.20
2022-11-24T22:14:20.459Z,42.20
2022-11-24T22:16:48.828Z,42.60
2022-11-24T22:19:17.216Z,41.80
2022-11-24T22:21:45.589Z,43.10
2022-11-24T22:24:13.857Z,43.70
2022-11-24T22:26:42.592Z,45.00
2022-11-24T22:29:13.783Z,45.10
2022-11-24T22:31:42.017Z,44.30
2022-11-24T22:34:10.296Z,43.10
2022-11-24T22:36:38.499Z,42.10
2022-11-24T22:39:09.497Z,42.10
2022-11-24T22:41:40.933Z,42.10
2022-11-24T22:44:09.385Z,43.00
2022-11-24T22:46:37.571Z,43.90
2022-11-24T22:49:05.649Z,44.20
2022-11-24T22:51:34.855Z,45.30
2022-11-24T22:54:05.075Z,48.70
2022-11-24T22:56:34.259Z,51.40
2022-11-24T22:59:03.282Z,50.50
2022-11-24T23:01:36.864Z,50.10
2022-11-24T23:04:05.258Z,49.50
2022-11-24T23:06:33.869Z,48.50
2022-11-24T23:09:05.002Z,47.70
2022-11-24T23:11:38.569Z,46.60
2022-11-24T23:14:12.815Z,46.40
2022-11-24T23:16:42.484Z,46.10
2022-11-24T23:19:10.994Z,48.00
2022-11-24T23:21:39.646Z,48.10
2022-11-24T23:24:08.746Z,45.80
2022-11-24T23:26:40.341Z,46.10
2022-11-24T23:29:11.336Z,45.60
2022-11-24T23:31:42.548Z,46.90
2022-11-24T23:34:11.049Z,45.90
2022-11-24T23:36:39.541Z,44.80
2022-11-24T23:39:12.701Z,46.10
2022-11-24T23:41:41.281Z,44.50
2022-11-24T23:44:09.771Z,46.20
2022-11-24T23:46:37.995Z,48.20
2022-11-24T23:49:06.596Z,49.60
2022-11-24T23:51:34.745Z,46.80
2022-11-24T23:54:09.899Z,45.50
2022-11-24T23:56:38.548Z,44.10
2022-11-24T23:59:06.942Z,44.70
